createdAt,value
2022-09-29T00:01:01.712Z,6.2
2022-09-29T00:06:01.918Z,6.3
2022-09-29T00:11:01.712Z,5.8
2022-09-29T00:16:02.028Z,5.6
2022-09-29T00:21:01.729Z,5.2
2022-09-29T00:26:01.869Z,5.2
2022-09-29T00:31:03.611Z,5.4
2022-09-29T00:36:01.689Z,5.4
2022-09-29T00:41:02.722Z,5.4
2022-09-29T00:46:02.000Z,5.2
2022-09-29T00:51:01.717Z,4.9
2022-09-29T00:56:01.789Z,4.5
2022-09-29T01:01:02.095Z,4.6
2022-09-29T01:06:01.884Z,4.4
2022-09-29T01:11:01.621Z,4.3
2022-09-29T01:16:01.990Z,4.3
2022-09-29T01:21:01.640Z,4.2
2022-09-29T01:26:01.800Z,3.8
2022-09-29T01:31:01.651Z,3.6
2022-09-29T01:36:01.655Z,3.7
2022-09-29T01:41:01.835Z,3.7
2022-09-29T01:51:01.551Z,4.2
2022-09-29T01:56:04.613Z,4.6
2022-09-29T02:01:01.746Z,4.8
2022-09-29T02:11:01.870Z,4.8
2022-09-29T02:16:01.903Z,5.3
2022-09-29T02:21:01.700Z,5.4
2022-09-29T02:26:02.767Z,5.8
2022-09-29T02:31:02.395Z,5.9
2022-09-29T02:36:01.960Z,6.2
2022-09-29T02:41:01.914Z,5.7
2022-09-29T02:46:02.220Z,5.4
2022-09-29T02:51:01.469Z,4.9
2022-09-29T02:56:01.387Z,5.0
2022-09-29T03:01:01.582Z,4.4
2022-09-29T03:06:07.699Z,5.0
2022-09-29T03:11:01.900Z,5.2
2022-09-29T03:16:01.471Z,4.8
2022-09-29T03:26:01.852Z,4.9
2022-09-29T03:31:01.531Z,4.5
2022-09-29T03:36:01.686Z,4.4
2022-09-29T03:41:03.319Z,4.7
2022-09-29T03:46:03.069Z,4.6
2022-09-29T03:51:01.822Z,4.9
2022-09-29T03:56:01.765Z,5.1
2022-09-29T04:01:02.236Z,5.3
2022-09-29T04:06:01.801Z,5.4
2022-09-29T04:11:02.033Z,5.4
2022-09-29T04:22:01.781Z,5.1
2022-09-29T04:27:01.748Z,5.1
2022-09-29T04:32:02.028Z,5.3
2022-09-29T04:37:01.751Z,5.2
2022-09-29T04:42:02.694Z,5.5
2022-09-29T04:47:01.874Z,5.6
2022-09-29T04:52:01.761Z,6.0
2022-09-29T04:57:02.231Z,6.4
2022-09-29T05:02:01.938Z,6.5
2022-09-29T05:07:01.699Z,6.6
2022-09-29T05:12:01.562Z,6.8
2022-09-29T05:17:01.492Z,6.6
2022-09-29T05:22:01.672Z,6.2
2022-09-29T05:27:01.529Z,6.6
2022-09-29T05:32:01.786Z,6.8
2022-09-29T05:37:01.567Z,6.6
2022-09-29T05:42:06.821Z,6.8
2022-09-29T05:47:01.543Z,7.4
2022-09-29T05:52:01.726Z,7.2
2022-09-29T05:57:01.522Z,7.4
2022-09-29T06:02:01.799Z,7.8
2022-09-29T06:07:02.025Z,8.1
2022-09-29T06:12:01.497Z,7.3
2022-09-29T06:17:01.520Z,7.0
2022-09-29T06:22:01.734Z,6.7
2022-09-29T06:27:01.369Z,6.4
2022-09-29T06:32:01.873Z,6.3
2022-09-29T06:37:01.461Z,6.7
2022-09-29T06:42:01.563Z,7.6
2022-09-29T06:47:01.805Z,7.7
2022-09-29T06:52:21.470Z,8.2
2022-09-29T06:58:04.880Z,8.4
2022-09-29T07:03:02.351Z,8.8
2022-09-29T07:08:01.885Z,8.6
2022-09-29T07:13:01.691Z,8.4
2022-09-29T07:18:01.713Z,8.4
2022-09-29T07:23:01.804Z,8.9
2022-09-29T07:28:02.289Z,9.2
2022-09-29T07:33:03.905Z,9.2
2022-09-29T07:38:02.012Z,9.6
2022-09-29T07:43:02.283Z,9.1
2022-09-29T07:48:02.165Z,8.5
2022-09-29T07:53:02.192Z,8.2
2022-09-29T07:58:01.832Z,7.9
2022-09-29T08:03:01.800Z,7.7
2022-09-29T08:08:01.686Z,7.8
2022-09-29T08:13:01.708Z,7.8
2022-09-29T08:18:02.180Z,7.4
2022-09-29T08:23:01.687Z,7.8
2022-09-29T08:28:01.691Z,8.0
2022-09-29T08:38:01.770Z,8.4
2022-09-29T08:43:01.662Z,8.8
2022-09-29T08:49:01.612Z,8.3
2022-09-29T08:54:04.483Z,7.5
2022-09-29T08:59:01.536Z,7.5
2022-09-29T09:04:11.502Z,6.9
2022-09-29T09:09:01.448Z,6.7
2022-09-29T09:14:01.485Z,6.5
2022-09-29T09:19:16.633Z,7.0
2022-09-29T09:24:08.888Z,6.8
2022-09-29T09:34:07.183Z,6.8
2022-09-29T09:39:01.761Z,6.8
2022-09-29T09:44:01.321Z,6.4
2022-09-29T09:49:06.909Z,6.1
2022-09-29T09:59:01.238Z,5.8
2022-09-29T10:04:01.621Z,5.4
2022-09-29T10:09:01.776Z,5.0
2022-09-29T10:14:16.753Z,5.2
2022-09-29T10:19:02.157Z,4.8
2022-09-29T10:24:02.774Z,4.5
2022-09-29T10:29:01.541Z,4.6
2022-09-29T10:34:02.025Z,4.8
2022-09-29T10:39:04.064Z,4.5
2022-09-29T10:44:01.453Z,4.7
2022-09-29T10:49:01.358Z,4.8
2022-09-29T10:54:02.685Z,4.8
2022-09-29T10:59:10.158Z,4.5
2022-09-29T11:04:01.952Z,4.2
2022-09-29T11:09:04.847Z,4.0
2022-09-29T11:14:01.653Z,3.8
2022-09-29T11:19:01.690Z,3.8
2022-09-29T11:24:01.666Z,3.9
2022-09-29T11:29:01.722Z,4.1
2022-09-29T11:34:01.414Z,4.2
2022-09-29T11:39:01.496Z,4.0
2022-09-29T11:44:01.526Z,4.0
2022-09-29T11:54:16.791Z,3.4
2022-09-29T11:59:01.112Z,3.2
2022-09-29T12:04:01.842Z,3.1
2022-09-29T12:09:01.952Z,3.1
2022-09-29T12:14:01.864Z,3.2
2022-09-29T12:19:01.540Z,3.6
2022-09-29T12:24:01.622Z,4.5
2022-09-29T12:29:01.435Z,4.8
2022-09-29T12:34:01.421Z,4.4
2022-09-29T12:39:01.591Z,4.4
2022-09-29T12:49:01.433Z,3.9
2022-09-29T12:54:01.752Z,3.4
2022-09-29T12:59:01.789Z,3.7
2022-09-29T13:04:01.380Z,3.6
2022-09-29T13:09:01.943Z,3.3
2022-09-29T13:14:01.845Z,2.9
2022-09-29T13:24:01.713Z,2.4
2022-09-29T13:29:01.597Z,2.3
2022-09-29T13:34:01.767Z,2.6
2022-09-29T13:39:01.515Z,2.4
2022-09-29T13:49:01.122Z,3.1
2022-09-29T13:54:17.727Z,3.3
2022-09-29T13:59:02.298Z,3.1
2022-09-29T14:04:01.254Z,3.1
2022-09-29T14:09:01.858Z,3.2
2022-09-29T14:14:06.549Z,2.9
2022-09-29T14:19:01.285Z,2.6
2022-09-29T14:29:01.450Z,2.6
2022-09-29T14:34:02.232Z,2.2
2022-09-29T14:44:06.438Z,2.0
2022-09-29T14:49:01.401Z,1.7
2022-09-29T14:54:01.800Z,1.5
2022-09-29T14:59:01.679Z,1.4
2022-09-29T15:09:02.162Z,1.2
2022-09-29T15:14:01.867Z,1.6
2022-09-29T15:19:01.719Z,1.6
2022-09-29T15:24:01.825Z,2.1
2022-09-29T15:29:01.684Z,1.8
2022-09-29T15:34:02.107Z,2.0
2022-09-29T15:39:01.732Z,1.5
2022-09-29T15:44:01.717Z,1.5
2022-09-29T15:49:01.615Z,1.2
2022-09-29T15:54:03.039Z,1.6
2022-09-29T15:59:02.132Z,1.8
2022-09-29T16:04:01.937Z,2.4
2022-09-29T16:09:04.512Z,3.0
2022-09-29T16:14:01.664Z,3.2
2022-09-29T16:19:08.068Z,3.4
2022-09-29T16:24:01.510Z,3.2
2022-09-29T16:34:01.911Z,3.1
2022-09-29T16:44:01.530Z,3.1
2022-09-29T16:49:01.856Z,3.5
2022-09-29T16:54:02.491Z,3.5
2022-09-29T16:59:01.510Z,3.8
2022-09-29T17:04:01.644Z,3.9
2022-09-29T17:09:01.771Z,5.1
2022-09-29T17:14:01.835Z,6.1
2022-09-29T17:19:01.784Z,7.8
2022-09-29T17:24:02.331Z,9.4
2022-09-29T17:29:01.776Z,11.0
2022-09-29T17:34:02.251Z,11.2
2022-09-29T17:39:01.777Z,11.1
2022-09-29T17:44:02.287Z,10.8
2022-09-29T17:49:01.746Z,10.0
2022-09-29T17:54:01.715Z,9.6
2022-09-29T17:59:01.475Z,9.6
2022-09-29T18:04:01.428Z,9.6
2022-09-29T18:09:01.856Z,9.6
2022-09-29T18:14:01.815Z,9.9
2022-09-29T18:19:02.240Z,10.4
2022-09-29T18:29:01.876Z,11.2
2022-09-29T18:34:01.769Z,13.1
2022-09-29T18:39:01.609Z,13.9
2022-09-29T18:44:01.732Z,15.1
2022-09-29T18:49:01.346Z,16.9
2022-09-29T18:54:01.812Z,18.1
2022-09-29T18:59:01.730Z,17.2
2022-09-29T19:04:01.713Z,17.6
2022-09-29T19:09:01.913Z,17.5
2022-09-29T19:14:01.855Z,16.6
2022-09-29T19:19:01.764Z,15.4
2022-09-29T19:24:01.716Z,15.2
2022-09-29T19:29:01.743Z,15.0
2022-09-29T19:34:01.848Z,15.1
2022-09-29T19:39:01.776Z,15.8
2022-09-29T19:44:01.815Z,16.8
2022-09-29T19:49:01.934Z,17.0
2022-09-29T19:54:01.903Z,16.8
2022-09-29T19:59:01.769Z,16.6
2022-09-29T20:04:01.697Z,15.8
2022-09-29T20:09:02.050Z,15.3
2022-09-29T20:14:02.306Z,14.7
2022-09-29T20:19:01.802Z,14.6
2022-09-29T20:24:01.706Z,14.5
2022-09-29T20:29:02.218Z,14.8
2022-09-29T20:34:02.153Z,14.1
2022-09-29T20:39:01.733Z,15.1
2022-09-29T20:44:01.718Z,15.0
2022-09-29T20:49:01.738Z,15.0
2022-09-29T20:54:01.805Z,15.4
2022-09-29T20:59:01.722Z,16.3
2022-09-29T21:04:01.724Z,15.6
2022-09-29T21:09:01.906Z,16.8
2022-09-29T21:14:03.155Z,17.2
2022-09-29T21:24:01.827Z,16.9
2022-09-29T21:29:01.710Z,18.2
2022-09-29T21:34:01.817Z,18.5
2022-09-29T21:39:09.327Z,18.6
2022-09-29T21:44:01.725Z,19.7
2022-09-29T21:49:01.827Z,19.9
2022-09-29T21:54:01.864Z,19.8
2022-09-29T21:59:01.711Z,19.8
2022-09-29T22:04:01.715Z,20.6
2022-09-29T22:09:03.611Z,20.5
2022-09-29T22:14:01.804Z,20.5
2022-09-29T22:19:25.569Z,19.8
2022-09-29T22:24:01.720Z,17.6
2022-09-29T22:29:01.797Z,17.0
2022-09-29T22:34:01.746Z,17.1
2022-09-29T22:44:01.723Z,17.1
2022-09-29T22:49:01.725Z,19.2
2022-09-29T22:54:02.232Z,19.6
2022-09-29T23:04:06.866Z,20.3
2022-09-29T23:09:02.078Z,20.0
2022-09-29T23:14:02.413Z,18.9
2022-09-29T23:19:01.715Z,18.3
2022-09-29T23:24:01.790Z,17.3
2022-09-29T23:29:01.730Z,17.0
2022-09-29T23:34:01.809Z,17.4
2022-09-29T23:39:01.790Z,17.6
2022-09-29T23:44:01.721Z,17.8
2022-09-29T23:49:04.527Z,15.6
2022-09-29T23:55:01.756Z,15.4
